KDAB/DAB METAR and TAF weather

Enter ICAO airport designator
Station Type Date Time Source
KDAB METAR 2021/07/26 15:53 UTC NOAA

KDAB 261553Z 23007KT 10SM SCT037 SCT070 BKN130 32/23 A2996 RMK AO2 SLP144 T03170228


Station Type Date Time Source
KDAB Decoded METAR 2021/07/26 15:53 UTC NOAA

DAYTONA BEACH INTERNATIONAL, FL, United States (KDAB) 29-10N 81-04W 9M
Jul 26, 2021 - 11:53 AM EDT / 2021.07.26 1553 UTC
Wind: from the SW (230 degrees) at 8 MPH (7 KT):0
Visibility: 10 mile(s):0
Sky conditions: mostly cloudy
Temperature: 89.1 F (31.7 C)
Heat index: 97.0 F (36.1 C):1
Dew Point: 73.0 F (22.8 C)
Relative Humidity: 59%
Pressure (altimeter): 29.96 in. Hg (1014 hPa)
ob: KDAB 261553Z 23007KT 10SM SCT037 SCT070 BKN130 32/23 A2996 RMK AO2 SLP144 T03170228
cycle: 16

Station Type Date Time Source
KDAB TAF 2021/07/26 12:33 UTC NOAA

TAF KDAB 261128Z 2612/2712 VRB03KT P6SM FEW023 BKN250
FM261400 23006KT P6SM SCT030 SCT250
FM261700 10009KT P6SM VCTS SCT035CB SCT060 SCT200
TEMPO 2619/2621 3SM TSRA BKN030CB
FM262200 14010KT P6SM FEW030 SCT050 BKN250
FM270000 19005KT P6SM FEW025 SCT250

Example: see airport list